createdAt,value
2018-11-06T00:00:00.903Z,7.29
2018-11-06T00:02:29.229Z,7.36
2018-11-06T00:05:02.672Z,7.37
2018-11-06T00:07:30.990Z,7.41
2018-11-06T00:09:59.402Z,7.42
2018-11-06T00:12:28.052Z,7.34
2018-11-06T00:14:58.574Z,7.29
2018-11-06T00:17:27.190Z,7.28
2018-11-06T00:19:56.303Z,7.27
2018-11-06T00:22:24.572Z,7.23
2018-11-06T00:24:53.072Z,7.19
2018-11-06T00:27:21.343Z,7.14
2018-11-06T00:29:49.679Z,7.08
2018-11-06T00:32:17.965Z,7.07
2018-11-06T00:34:46.293Z,7.02
2018-11-06T00:37:14.574Z,7.02
2018-11-06T00:39:43.486Z,6.97
2018-11-06T00:42:12.038Z,6.91
2018-11-06T00:44:40.416Z,6.86
2018-11-06T00:47:08.740Z,6.86
2018-11-06T00:49:37.166Z,6.88
2018-11-06T00:52:05.916Z,6.92
2018-11-06T00:54:34.318Z,7.00
2018-11-06T00:57:02.644Z,6.99
2018-11-06T00:59:31.027Z,6.98
2018-11-06T01:01:59.364Z,7.07
2018-11-06T01:04:27.596Z,7.10
2018-11-06T01:06:55.889Z,7.12
2018-11-06T01:09:24.247Z,7.17
2018-11-06T01:11:52.598Z,7.10
2018-11-06T01:14:20.878Z,7.06
2018-11-06T01:16:49.162Z,7.06
2018-11-06T01:19:17.555Z,7.08
2018-11-06T01:21:45.945Z,7.08
2018-11-06T01:24:14.236Z,7.06
2018-11-06T01:26:42.554Z,7.05
2018-11-06T01:29:10.772Z,7.02
2018-11-06T01:31:39.048Z,7.02
2018-11-06T01:34:07.310Z,7.03
2018-11-06T01:36:35.720Z,7.02
2018-11-06T01:39:05.336Z,7.00
2018-11-06T01:41:33.563Z,6.98
2018-11-06T01:44:01.824Z,6.89
2018-11-06T01:46:30.212Z,6.87
2018-11-06T01:48:58.590Z,6.84
2018-11-06T01:51:26.852Z,6.83
2018-11-06T01:53:55.146Z,6.79
2018-11-06T01:56:23.711Z,6.72
2018-11-06T01:58:52.003Z,6.63
2018-11-06T02:01:20.360Z,6.67
2018-11-06T02:03:48.713Z,6.64
2018-11-06T02:06:16.964Z,6.61
2018-11-06T02:08:45.231Z,6.48
2018-11-06T02:11:13.510Z,6.49
2018-11-06T02:13:41.762Z,6.43
2018-11-06T02:16:10.009Z,6.40
2018-11-06T02:18:38.314Z,6.35
2018-11-06T02:21:06.769Z,6.28
2018-11-06T02:23:35.012Z,6.28
2018-11-06T02:26:03.428Z,6.27
2018-11-06T02:28:31.745Z,6.25
2018-11-06T02:31:00.034Z,6.24
2018-11-06T02:33:28.388Z,6.24
2018-11-06T02:35:56.708Z,6.16
2018-11-06T02:38:25.131Z,6.12
2018-11-06T02:40:53.433Z,6.15
2018-11-06T02:43:21.707Z,6.27
2018-11-06T02:45:49.964Z,6.26
2018-11-06T02:48:18.291Z,6.24
2018-11-06T02:50:46.598Z,6.19
2018-11-06T02:53:15.001Z,6.17
2018-11-06T02:55:43.318Z,6.15
2018-11-06T02:58:14.507Z,6.13
2018-11-06T03:00:42.956Z,6.09
2018-11-06T03:03:11.366Z,6.09
2018-11-06T03:05:39.814Z,6.05
2018-11-06T03:08:08.122Z,6.02
2018-11-06T03:10:36.417Z,5.98
2018-11-06T03:13:05.066Z,5.97
2018-11-06T03:18:23.918Z,5.96
2018-11-06T03:20:52.218Z,5.96
2018-11-06T03:23:20.465Z,5.79
2018-11-06T03:25:48.764Z,5.68
2018-11-06T03:28:17.179Z,5.62
2018-11-06T03:30:45.513Z,5.44
2018-11-06T03:33:13.888Z,5.51
2018-11-06T03:35:42.219Z,5.50
2018-11-06T03:38:10.527Z,5.48
2018-11-06T03:40:38.809Z,5.48
2018-11-06T03:43:07.280Z,5.43
2018-11-06T03:45:35.591Z,5.44
2018-11-06T03:48:03.982Z,5.46
2018-11-06T03:50:32.302Z,5.45
2018-11-06T03:53:00.556Z,5.37
2018-11-06T03:55:28.857Z,5.38
2018-11-06T03:57:57.096Z,5.31
2018-11-06T04:00:25.352Z,5.26
2018-11-06T04:02:53.676Z,5.25
2018-11-06T04:05:21.960Z,5.13
2018-11-06T04:07:50.287Z,5.14
2018-11-06T04:10:18.686Z,5.15
2018-11-06T04:12:46.943Z,5.14
2018-11-06T04:15:15.239Z,5.13
2018-11-06T04:17:44.412Z,5.15
2018-11-06T04:20:12.730Z,5.23
2018-11-06T04:22:41.903Z,5.21
2018-11-06T04:25:10.382Z,5.27
2018-11-06T04:27:38.949Z,5.32
2018-11-06T04:30:09.224Z,5.28
2018-11-06T04:32:37.521Z,5.17
2018-11-06T04:35:06.397Z,5.10
2018-11-06T04:37:34.764Z,4.99
2018-11-06T04:40:03.269Z,5.00
2018-11-06T04:42:31.554Z,5.06
2018-11-06T04:44:59.899Z,5.07
2018-11-06T04:47:28.334Z,5.08
2018-11-06T04:49:56.638Z,5.12
2018-11-06T04:52:24.938Z,5.12
2018-11-06T04:54:53.271Z,5.19
2018-11-06T04:57:21.556Z,5.29
2018-11-06T04:59:49.926Z,5.33
2018-11-06T05:02:18.263Z,5.37
2018-11-06T05:04:46.468Z,5.43
2018-11-06T05:07:14.776Z,5.40
2018-11-06T05:09:43.120Z,5.42
2018-11-06T05:12:11.434Z,5.46
2018-11-06T05:14:39.692Z,5.47
2018-11-06T05:17:08.017Z,5.45
2018-11-06T05:19:36.328Z,5.50
2018-11-06T05:22:05.115Z,5.50
2018-11-06T05:24:33.495Z,5.48
2018-11-06T05:27:02.007Z,5.52
2018-11-06T05:29:30.467Z,5.55
2018-11-06T05:31:58.708Z,5.53
2018-11-06T05:34:29.062Z,5.50
2018-11-06T05:36:57.496Z,5.44
2018-11-06T05:39:25.898Z,5.44
2018-11-06T05:41:54.219Z,5.44
2018-11-06T05:44:22.627Z,5.42
2018-11-06T05:46:50.908Z,5.44
2018-11-06T05:49:19.326Z,5.40
2018-11-06T05:51:47.578Z,5.42
2018-11-06T05:54:15.986Z,5.40
2018-11-06T05:56:44.312Z,5.38
2018-11-06T05:59:12.692Z,5.41
2018-11-06T06:01:40.966Z,5.35
2018-11-06T06:04:10.005Z,5.41
2018-11-06T06:06:38.300Z,5.46
2018-11-06T06:09:07.472Z,5.56
2018-11-06T06:11:35.955Z,5.60
2018-11-06T06:14:04.390Z,5.59
2018-11-06T06:16:32.750Z,5.51
2018-11-06T06:19:00.997Z,5.52
2018-11-06T06:21:29.415Z,5.50
2018-11-06T06:23:57.704Z,5.54
2018-11-06T06:26:26.168Z,5.55
2018-11-06T06:28:54.554Z,5.60
2018-11-06T06:31:22.889Z,5.57
2018-11-06T06:33:51.759Z,5.58
2018-11-06T06:36:20.252Z,5.67
2018-11-06T06:38:48.623Z,5.66
2018-11-06T06:41:16.860Z,5.77
2018-11-06T06:43:45.255Z,5.84
2018-11-06T06:46:13.548Z,5.81
2018-11-06T06:48:42.002Z,5.90
2018-11-06T06:51:10.402Z,5.84
2018-11-06T06:53:38.744Z,5.74
2018-11-06T06:56:07.131Z,5.65
2018-11-06T06:58:35.432Z,5.63
2018-11-06T07:01:03.777Z,5.73
2018-11-06T07:03:32.278Z,5.83
2018-11-06T07:06:00.553Z,5.95
2018-11-06T07:08:28.888Z,6.04
2018-11-06T07:10:57.281Z,6.15
2018-11-06T07:13:25.569Z,6.24
2018-11-06T07:15:53.854Z,6.32
2018-11-06T07:18:22.197Z,6.42
2018-11-06T07:20:50.428Z,6.55
2018-11-06T07:23:18.722Z,6.66
2018-11-06T07:25:46.998Z,6.84
2018-11-06T07:28:15.344Z,6.84
2018-11-06T07:30:43.651Z,6.92
2018-11-06T07:33:11.998Z,7.04
2018-11-06T07:35:40.558Z,7.15
2018-11-06T07:38:08.678Z,7.19
2018-11-06T07:40:37.115Z,7.32
2018-11-06T07:43:05.430Z,7.37
2018-11-06T07:45:33.728Z,7.40
2018-11-06T07:48:02.006Z,7.58
2018-11-06T07:50:30.424Z,7.84
2018-11-06T07:52:58.765Z,8.05
2018-11-06T07:55:27.080Z,8.23
2018-11-06T07:57:55.368Z,8.35
2018-11-06T08:00:25.076Z,8.48
2018-11-06T08:02:53.427Z,8.57
2018-11-06T08:05:22.762Z,8.77
2018-11-06T08:07:51.672Z,9.00
2018-11-06T08:10:20.053Z,9.22
2018-11-06T08:12:50.682Z,9.07
2018-11-06T08:15:18.959Z,9.25
2018-11-06T08:17:47.417Z,9.34
2018-11-06T08:20:15.739Z,9.44
2018-11-06T08:22:44.466Z,9.52
2018-11-06T08:25:13.901Z,9.75
2018-11-06T08:27:42.905Z,9.95
2018-11-06T08:30:12.244Z,10.18
2018-11-06T08:32:40.980Z,10.26
2018-11-06T08:35:11.087Z,10.45
2018-11-06T08:37:39.454Z,10.66
2018-11-06T08:40:08.483Z,10.94
2018-11-06T08:42:36.974Z,11.18
2018-11-06T08:45:06.705Z,11.28
2018-11-06T08:47:34.983Z,11.37
2018-11-06T08:50:03.298Z,11.74
2018-11-06T08:52:31.700Z,12.04
2018-11-06T08:55:00.256Z,12.06
2018-11-06T08:57:28.568Z,11.91
2018-11-06T08:59:56.976Z,11.88
2018-11-06T09:02:25.460Z,11.83
2018-11-06T09:04:53.673Z,11.96
2018-11-06T09:07:22.075Z,11.81
2018-11-06T09:09:50.506Z,11.98
2018-11-06T09:12:19.268Z,12.07
2018-11-06T09:14:47.716Z,12.17
2018-11-06T09:17:17.113Z,12.33
2018-11-06T09:19:45.415Z,12.16
2018-11-06T09:22:13.736Z,11.96
2018-11-06T09:24:42.173Z,12.47
2018-11-06T09:27:10.451Z,12.60
2018-11-06T09:29:38.771Z,12.42
2018-11-06T09:32:07.560Z,12.36
2018-11-06T09:34:35.840Z,12.22
2018-11-06T09:37:04.311Z,12.42
2018-11-06T09:39:32.600Z,12.50
2018-11-06T09:42:01.033Z,12.40
2018-11-06T09:44:29.361Z,12.05
2018-11-06T09:46:57.746Z,12.40
2018-11-06T09:49:26.045Z,12.68
2018-11-06T09:51:54.452Z,12.75
2018-11-06T09:54:22.670Z,13.08
2018-11-06T09:56:51.046Z,13.15
2018-11-06T09:59:19.349Z,13.25
2018-11-06T10:01:47.883Z,13.50
2018-11-06T10:04:16.373Z,13.67
2018-11-06T10:10:09.388Z,13.77
2018-11-06T10:12:38.072Z,13.85
2018-11-06T10:15:07.984Z,13.83
2018-11-06T10:20:26.615Z,14.93
2018-11-06T10:22:54.280Z,15.85
2018-11-06T10:25:21.841Z,16.69
2018-11-06T10:27:49.380Z,17.42
2018-11-06T10:30:18.188Z,18.05
2018-11-06T10:32:45.691Z,18.61
2018-11-06T10:35:13.459Z,19.05
2018-11-06T10:37:41.130Z,19.37
2018-11-06T10:40:10.133Z,19.62
2018-11-06T10:42:37.729Z,19.79
2018-11-06T10:45:05.555Z,19.92
2018-11-06T10:47:33.211Z,20.00
2018-11-06T10:50:00.940Z,20.07
2018-11-06T10:52:28.458Z,20.15
2018-11-06T10:54:55.989Z,20.17
2018-11-06T10:57:23.562Z,20.21
2018-11-06T10:59:51.096Z,20.23
2018-11-06T11:02:27.909Z,20.25
2018-11-06T11:04:56.026Z,20.26
2018-11-06T11:07:23.673Z,20.28
2018-11-06T11:09:51.339Z,20.29
2018-11-06T11:12:18.922Z,20.32
2018-11-06T11:14:46.565Z,20.32
2018-11-06T11:17:14.161Z,20.33
2018-11-06T11:19:41.701Z,20.33
2018-11-06T11:22:09.210Z,20.33
2018-11-06T11:24:36.823Z,20.35
2018-11-06T11:27:04.441Z,20.36
2018-11-06T11:29:32.011Z,20.36
2018-11-06T11:31:59.548Z,20.36
2018-11-06T11:34:27.075Z,20.39
2018-11-06T11:36:54.754Z,20.39
2018-11-06T11:39:22.356Z,20.39
2018-11-06T11:41:49.942Z,20.40
2018-11-06T11:44:17.568Z,20.40
2018-11-06T11:46:45.101Z,20.39
2018-11-06T11:49:12.627Z,20.41
2018-11-06T11:51:40.203Z,20.41
2018-11-06T11:54:07.695Z,20.44
2018-11-06T11:56:35.282Z,20.43
2018-11-06T11:59:02.774Z,20.39
2018-11-06T12:01:30.277Z,20.42
2018-11-06T12:03:57.849Z,20.43
2018-11-06T12:06:25.481Z,20.48
2018-11-06T12:08:53.044Z,20.45
2018-11-06T12:11:20.613Z,20.47
2018-11-06T12:13:48.145Z,20.48
2018-11-06T12:16:15.643Z,20.50
2018-11-06T12:18:43.171Z,20.48
2018-11-06T12:21:10.684Z,20.50
2018-11-06T12:23:38.322Z,20.53
2018-11-06T12:26:05.885Z,20.50
2018-11-06T12:28:33.475Z,20.50
2018-11-06T12:31:01.074Z,20.51
2018-11-06T12:33:28.649Z,20.55
2018-11-06T12:35:56.183Z,20.53
2018-11-06T12:38:23.790Z,20.55
2018-11-06T12:40:51.382Z,20.55
2018-11-06T12:43:18.892Z,20.58
2018-11-06T12:45:46.490Z,20.58
2018-11-06T12:48:13.979Z,20.59
2018-11-06T12:50:41.626Z,20.60
2018-11-06T12:53:09.191Z,20.62
2018-11-06T12:55:36.658Z,20.62
2018-11-06T12:58:04.247Z,20.63
2018-11-06T13:00:31.761Z,20.62
2018-11-06T13:02:59.299Z,20.65
2018-11-06T13:05:26.838Z,20.67
2018-11-06T13:07:54.335Z,20.66
2018-11-06T13:10:21.951Z,20.70
2018-11-06T13:12:49.466Z,20.69
2018-11-06T13:15:17.869Z,20.70
2018-11-06T13:17:44.507Z,20.71
2018-11-06T13:20:13.583Z,20.73
2018-11-06T13:22:41.739Z,20.70
2018-11-06T13:25:09.313Z,20.71
2018-11-06T13:27:37.826Z,20.74
2018-11-06T13:30:06.600Z,20.74
2018-11-06T13:32:34.261Z,20.76
2018-11-06T13:35:02.078Z,20.76
2018-11-06T13:37:29.731Z,20.77
2018-11-06T13:39:57.257Z,20.79
2018-11-06T13:42:24.910Z,20.79
2018-11-06T13:44:52.828Z,20.80
2018-11-06T13:47:20.513Z,20.79
2018-11-06T13:49:48.088Z,20.79
2018-11-06T13:52:15.793Z,20.78
2018-11-06T13:54:43.378Z,20.79
2018-11-06T13:57:10.949Z,20.78
2018-11-06T13:59:38.503Z,20.77
2018-11-06T14:02:06.111Z,20.77
2018-11-06T14:04:33.686Z,20.77
2018-11-06T14:07:01.211Z,20.77
2018-11-06T14:09:28.747Z,20.78
2018-11-06T14:11:56.231Z,20.75
2018-11-06T14:14:23.744Z,20.75
2018-11-06T14:16:51.272Z,20.74
2018-11-06T14:19:18.869Z,20.75
2018-11-06T14:21:46.445Z,20.76
2018-11-06T14:24:14.109Z,20.76
2018-11-06T14:26:41.694Z,20.74
2018-11-06T14:29:09.318Z,20.75
2018-11-06T14:31:36.963Z,20.72
2018-11-06T14:34:05.624Z,20.85
2018-11-06T14:36:33.988Z,20.79
2018-11-06T14:39:02.229Z,20.87
2018-11-06T14:41:30.461Z,20.73
2018-11-06T14:43:58.741Z,20.85
2018-11-06T14:46:27.096Z,20.93
2018-11-06T14:48:55.532Z,21.00
2018-11-06T14:51:23.754Z,21.06
2018-11-06T14:53:52.087Z,21.11
2018-11-06T14:56:20.352Z,21.14
2018-11-06T14:58:48.568Z,21.18
2018-11-06T15:01:16.819Z,21.18
2018-11-06T15:03:45.079Z,21.20
2018-11-06T15:06:13.413Z,21.21
2018-11-06T15:08:41.830Z,21.22
2018-11-06T15:11:10.104Z,21.23
2018-11-06T15:13:38.355Z,21.23
2018-11-06T15:16:06.691Z,21.22
2018-11-06T15:18:34.981Z,21.23
2018-11-06T15:21:04.301Z,21.23
2018-11-06T15:23:32.561Z,21.23
2018-11-06T15:26:00.955Z,21.22
2018-11-06T15:28:29.305Z,20.87
2018-11-06T15:33:49.040Z,19.32
2018-11-06T15:36:23.962Z,19.58
2018-11-06T15:38:53.370Z,19.83
2018-11-06T15:41:21.717Z,19.99
2018-11-06T15:43:49.997Z,20.13
2018-11-06T15:46:17.562Z,20.21
2018-11-06T15:48:50.323Z,20.26
2018-11-06T15:51:18.692Z,20.29
2018-11-06T15:53:51.813Z,20.30
2018-11-06T15:56:20.146Z,20.31
2018-11-06T15:58:48.458Z,20.30
2018-11-06T16:01:16.939Z,20.30
2018-11-06T16:03:45.297Z,20.30
2018-11-06T16:06:15.290Z,20.73
2018-11-06T16:08:43.597Z,21.55
2018-11-06T16:11:11.161Z,22.77
2018-11-06T16:13:38.706Z,23.53
2018-11-06T16:16:07.308Z,24.37
2018-11-06T16:18:41.443Z,25.01
2018-11-06T16:21:09.756Z,25.82
2018-11-06T16:23:38.046Z,26.41
2018-11-06T16:26:11.812Z,26.66
2018-11-06T16:28:40.138Z,26.76
2018-11-06T16:31:10.492Z,26.75
2018-11-06T16:33:38.888Z,26.61
2018-11-06T16:36:10.112Z,26.41
2018-11-06T16:38:40.555Z,26.11
2018-11-06T16:41:09.030Z,25.84
2018-11-06T16:43:47.536Z,25.58
2018-11-06T16:46:16.703Z,25.27
2018-11-06T16:48:45.081Z,25.07
2018-11-06T16:51:13.393Z,24.84
2018-11-06T16:53:41.844Z,24.63
2018-11-06T16:56:10.171Z,24.43
2018-11-06T16:58:40.586Z,24.20
2018-11-06T17:01:11.150Z,23.99
2018-11-06T17:03:39.344Z,23.79
2018-11-06T17:06:12.333Z,23.66
2018-11-06T17:08:40.683Z,23.51
2018-11-06T17:11:12.350Z,23.37
2018-11-06T17:13:40.688Z,23.28
2018-11-06T17:16:09.078Z,23.21
2018-11-06T17:18:44.061Z,23.13
2018-11-06T17:21:12.484Z,23.05
2018-11-06T17:23:40.962Z,22.96
2018-11-06T17:26:19.265Z,22.87
2018-11-06T17:28:47.611Z,22.78
2018-11-06T17:31:16.012Z,22.69
2018-11-06T17:33:44.634Z,22.61
2018-11-06T17:36:12.985Z,22.55
2018-11-06T17:38:41.395Z,22.48
2018-11-06T17:41:09.781Z,22.40
2018-11-06T17:43:38.421Z,22.34
2018-11-06T17:46:06.858Z,22.30
2018-11-06T17:48:35.612Z,22.21
2018-11-06T17:51:03.940Z,22.16
2018-11-06T17:53:32.300Z,22.06
2018-11-06T17:56:02.708Z,22.00
2018-11-06T17:58:31.102Z,21.92
2018-11-06T18:00:59.861Z,21.86
2018-11-06T18:03:29.287Z,21.78
2018-11-06T18:05:58.650Z,21.74
2018-11-06T18:08:37.919Z,21.67
2018-11-06T18:11:06.364Z,21.63
2018-11-06T18:13:34.796Z,21.54
2018-11-06T18:16:03.231Z,21.47
2018-11-06T18:18:32.826Z,21.45
2018-11-06T18:21:02.242Z,21.41
2018-11-06T18:23:37.637Z,21.37
2018-11-06T18:26:06.082Z,21.32
2018-11-06T18:28:40.815Z,21.27
2018-11-06T18:31:21.648Z,21.27
2018-11-06T18:33:50.105Z,21.23
2018-11-06T18:36:19.471Z,21.18
2018-11-06T18:38:48.146Z,21.14
2018-11-06T18:41:31.724Z,21.09
2018-11-06T18:44:01.340Z,21.05
2018-11-06T18:46:29.819Z,21.02
2018-11-06T18:48:58.161Z,20.98
2018-11-06T18:51:27.543Z,20.94
2018-11-06T18:53:56.899Z,20.92
2018-11-06T18:56:25.197Z,20.91
2018-11-06T18:58:53.478Z,20.89
2018-11-06T19:01:21.923Z,20.90
2018-11-06T19:03:50.239Z,20.91
2018-11-06T19:06:18.589Z,20.92
2018-11-06T19:08:46.876Z,20.95
2018-11-06T19:11:15.894Z,20.99
2018-11-06T19:13:50.044Z,20.98
2018-11-06T19:16:18.425Z,21.02
2018-11-06T19:18:46.680Z,21.02
2018-11-06T19:21:15.032Z,21.01
2018-11-06T19:23:43.352Z,21.01
2018-11-06T19:26:11.607Z,21.00
2018-11-06T19:28:39.985Z,20.98
2018-11-06T19:31:08.403Z,20.97
2018-11-06T19:33:36.695Z,20.92
2018-11-06T19:36:05.198Z,20.89
2018-11-06T19:38:37.918Z,20.86
2018-11-06T19:41:06.461Z,20.82
2018-11-06T19:43:34.716Z,20.80
2018-11-06T19:46:03.025Z,20.77
2018-11-06T19:48:32.995Z,20.73
2018-11-06T19:51:01.430Z,20.75
2018-11-06T19:53:29.895Z,20.71
2018-11-06T19:56:02.709Z,20.69
2018-11-06T19:58:30.980Z,20.67
2018-11-06T20:00:59.430Z,20.64
2018-11-06T20:03:27.687Z,20.62
2018-11-06T20:05:56.068Z,20.60
2018-11-06T20:08:24.260Z,20.58
2018-11-06T20:10:52.607Z,20.55
2018-11-06T20:13:21.014Z,20.54
2018-11-06T20:15:49.393Z,20.54
2018-11-06T20:18:18.137Z,20.51
2018-11-06T20:20:46.581Z,20.49
2018-11-06T20:23:15.029Z,20.48
2018-11-06T20:25:46.713Z,20.45
2018-11-06T20:28:14.972Z,20.42
2018-11-06T20:30:43.347Z,20.40
2018-11-06T20:33:12.827Z,20.39
2018-11-06T20:35:41.191Z,20.38
2018-11-06T20:38:19.663Z,20.36
2018-11-06T20:40:48.033Z,20.35
2018-11-06T20:43:16.589Z,20.34
2018-11-06T20:45:48.326Z,20.34
2018-11-06T20:48:16.598Z,20.33
2018-11-06T20:50:44.892Z,20.33
2018-11-06T20:53:15.610Z,20.27
2018-11-06T20:55:44.428Z,20.28
2018-11-06T20:58:12.941Z,20.26
2018-11-06T21:00:43.065Z,20.25
2018-11-06T21:03:11.670Z,20.23
2018-11-06T21:05:42.169Z,20.22
2018-11-06T21:08:14.184Z,20.20
2018-11-06T21:10:42.632Z,20.19
2018-11-06T21:13:11.051Z,20.17
2018-11-06T21:15:39.177Z,20.16
2018-11-06T21:18:08.645Z,20.15
2018-11-06T21:20:37.124Z,20.15
2018-11-06T21:23:05.649Z,20.14
2018-11-06T21:25:34.097Z,20.13
2018-11-06T21:28:05.784Z,20.12
2018-11-06T21:30:34.125Z,20.10
2018-11-06T21:33:09.390Z,20.10
2018-11-06T21:35:37.836Z,20.10
2018-11-06T21:38:07.220Z,20.08
2018-11-06T21:40:35.556Z,20.07
2018-11-06T21:43:10.173Z,20.10
2018-11-06T21:45:40.635Z,20.09
2018-11-06T21:48:09.090Z,20.07
2018-11-06T21:50:42.665Z,20.10
2018-11-06T21:53:12.188Z,20.06
2018-11-06T21:55:41.921Z,20.07
2018-11-06T21:58:12.523Z,20.06
2018-11-06T22:00:41.131Z,20.05
2018-11-06T22:03:13.429Z,20.04
2018-11-06T22:05:42.186Z,20.04
2018-11-06T22:08:15.111Z,20.03
2018-11-06T22:10:49.304Z,20.02
2018-11-06T22:13:18.680Z,20.01
2018-11-06T22:15:47.024Z,20.02
2018-11-06T22:18:16.500Z,20.01
2018-11-06T22:20:52.599Z,20.00
2018-11-06T22:23:21.023Z,19.98
2018-11-06T22:25:49.315Z,19.97
2018-11-06T22:28:17.734Z,19.96
2018-11-06T22:30:46.195Z,19.95
2018-11-06T22:33:14.639Z,19.94
2018-11-06T22:35:42.959Z,19.94
2018-11-06T22:38:11.313Z,19.93
2018-11-06T22:40:39.698Z,19.91
2018-11-06T22:43:09.904Z,19.91
2018-11-06T22:45:38.514Z,19.90
2018-11-06T22:48:09.013Z,19.90
2018-11-06T22:50:37.449Z,19.88
2018-11-06T22:53:06.157Z,19.87
2018-11-06T22:55:35.482Z,19.86
2018-11-06T22:58:06.933Z,19.86
2018-11-06T23:00:44.581Z,19.86
2018-11-06T23:03:15.159Z,19.85
2018-11-06T23:05:43.590Z,19.85
2018-11-06T23:08:17.476Z,19.83
2018-11-06T23:10:47.563Z,19.83
2018-11-06T23:13:17.369Z,19.82
2018-11-06T23:15:45.700Z,19.81
2018-11-06T23:18:14.418Z,19.80
2018-11-06T23:20:42.725Z,19.80
2018-11-06T23:23:12.215Z,19.79
2018-11-06T23:25:40.511Z,19.78
2018-11-06T23:28:08.765Z,19.78
2018-11-06T23:30:37.089Z,19.77
2018-11-06T23:33:05.647Z,19.76
2018-11-06T23:35:34.038Z,19.76
2018-11-06T23:38:02.380Z,19.75
2018-11-06T23:40:30.696Z,19.74
2018-11-06T23:43:04.144Z,19.74
2018-11-06T23:45:32.445Z,19.73
2018-11-06T23:48:00.734Z,19.73
2018-11-06T23:50:29.021Z,19.73
2018-11-06T23:52:59.549Z,19.71
2018-11-06T23:55:27.892Z,19.70
2018-11-06T23:57:56.343Z,19.70
